Time;durP1;ratioP1;P1;durP2;ratioP2;P2;SDS_P1;SDS_P2;PMS_P1;PMS_P2;Temp;Humidity;BMP_temperature;BMP_pressure;BME280_temperature;BME280_humidity;BME280_pressure;Samples;Min_cycle;Max_cycle;Signal;HPM_P1;HPM_P2
2023/07/01 00:00:25;;;;;;;11.50;9.90;;;;;;;20.57;87.05;99834.11;106394;1257;98288;-82
2023/07/01 00:03:35;;;;;;;12.30;10.10;;;;;;;20.55;86.99;99841.94;106602;1257;104070;-83
2023/07/01 00:06:21;;;;;;;9.90;8.90;;;;;;;20.53;87.22;99838.95;106299;1254;100340;-83
2023/07/01 00:09:08;;;;;;;12.70;11.40;;;;;;;20.52;87.13;99833.44;106379;1254;97897;-84
2023/07/01 00:11:53;;;;;;;11.90;10.60;;;;;;;20.51;87.19;99832.73;106344;1257;97953;-84
2023/07/01 00:14:39;;;;;;;10.80;9.70;;;;;;;20.49;87.14;99831.42;106612;1257;98379;-83
2023/07/01 00:17:25;;;;;;;11.90;9.90;;;;;;;20.46;87.30;99835.02;106336;1257;102611;-83
2023/07/01 00:20:11;;;;;;;13.10;11.00;;;;;;;20.44;87.58;99837.73;106233;1254;99829;-84
2023/07/01 00:22:57;;;;;;;12.10;10.60;;;;;;;20.44;87.57;99837.23;106267;1257;99254;-84
2023/07/01 00:25:43;;;;;;;12.10;10.80;;;;;;;20.44;87.60;99839.04;106347;1254;97963;-83
2023/07/01 00:28:29;;;;;;;11.80;10.50;;;;;;;20.42;87.81;99842.35;106358;1260;99314;-84
2023/07/01 00:31:15;;;;;;;12.30;10.50;;;;;;;20.39;87.91;99838.54;106358;1260;102011;-83
2023/07/01 00:34:01;;;;;;;11.20;10.00;;;;;;;20.37;88.03;99840.16;106314;1254;99819;-83
2023/07/01 00:36:46;;;;;;;16.60;12.50;;;;;;;20.36;88.06;99837.71;106347;1254;108047;-83
2023/07/01 00:39:32;;;;;;;13.70;12.30;;;;;;;20.35;88.12;99838.42;106367;1254;97947;-83
2023/07/01 00:42:18;;;;;;;12.50;11.30;;;;;;;20.34;88.31;99837.75;106297;1261;97960;-84
2023/07/01 00:45:05;;;;;;;24.40;14.60;;;;;;;20.31;88.49;99834.70;106366;1254;103046;-84
2023/07/01 00:47:51;;;;;;;15.90;13.60;;;;;;;20.28;88.59;99832.09;106518;1257;99076;-83
2023/07/01 00:50:37;;;;;;;18.40;14.30;;;;;;;20.25;88.81;99831.97;106311;1260;98004;-83
2023/07/01 00:53:24;;;;;;;17.60;12.70;;;;;;;20.23;89.06;99831.15;106460;1254;97863;-84
2023/07/01 00:56:09;;;;;;;14.40;13.00;;;;;;;20.20;89.45;99833.30;106527;1260;97906;-84
2023/07/01 00:58:55;;;;;;;14.40;13.10;;;;;;;20.15;89.66;99836.16;106324;1260;101426;-84
2023/07/01 01:01:48;;;;;;;14.20;12.70;;;;;;;20.13;89.98;99835.77;106376;1254;99092;-84
2023/07/01 01:04:46;;;;;;;13.80;12.20;;;;;;;20.11;90.11;99835.00;106266;1254;98998;-84
2023/07/01 01:07:46;;;;;;;14.30;12.80;;;;;;;20.08;90.37;99829.50;106575;1254;97833;-83
2023/07/01 01:10:34;;;;;;;13.20;11.80;;;;;;;20.06;90.61;99826.67;106447;1254;97748;-85
2023/07/01 01:13:21;;;;;;;13.00;11.70;;;;;;;20.06;90.85;99831.52;106491;1254;101372;-84
2023/07/01 01:16:07;;;;;;;13.70;12.30;;;;;;;20.05;90.93;99821.45;106342;1254;100042;-83
2023/07/01 01:18:56;;;;;;;16.80;13.00;;;;;;;20.05;91.22;99820.30;106472;1256;98044;-83
2023/07/01 01:21:43;;;;;;;15.90;14.30;;;;;;;20.02;91.55;99817.85;106595;1259;97902;-83
2023/07/01 01:24:33;;;;;;;14.90;13.40;;;;;;;19.99;91.59;99812.83;106326;1254;97851;-83
2023/07/01 01:27:23;;;;;;;21.00;13.90;;;;;;;19.99;91.47;99809.73;106520;1254;102596;-84
2023/07/01 01:30:09;;;;;;;17.80;13.20;;;;;;;20.02;91.56;99810.89;106391;1258;99071;-86
2023/07/01 01:32:55;;;;;;;15.50;13.20;;;;;;;20.02;91.88;99811.38;106410;1253;98918;-84
2023/07/01 01:35:41;;;;;;;17.30;14.00;;;;;;;20.02;92.08;99816.01;106331;1254;98036;-82
2023/07/01 01:38:33;;;;;;;17.00;12.80;;;;;;;20.03;91.78;99816.39;106582;1257;97861;-84
2023/07/01 01:41:28;;;;;;;15.30;13.70;;;;;;;20.04;92.07;99821.81;106499;1253;102583;-82
2023/07/01 01:44:25;;;;;;;15.80;14.00;;;;;;;20.04;92.21;99822.04;106498;1254;99046;-84
2023/07/01 01:47:17;;;;;;;16.50;14.60;;;;;;;20.01;92.37;99825.83;106445;1254;97874;-85
2023/07/01 01:50:09;;;;;;;16.30;13.90;;;;;;;20.00;92.47;99824.58;106323;1254;97924;-84
2023/07/01 01:52:57;;;;;;;16.30;14.80;;;;;;;19.99;92.63;99822.35;106226;1254;98407;-83
2023/07/01 01:55:43;;;;;;;17.20;14.80;;;;;;;20.01;92.88;99820.89;106412;1254;102114;-84
2023/07/01 01:58:29;;;;;;;15.60;14.00;;;;;;;20.03;93.13;99819.87;106265;1263;99104;-84
2023/07/01 02:01:15;;;;;;;17.00;15.30;;;;;;;20.04;93.01;99820.34;106393;1257;98994;-84
2023/07/01 02:04:00;;;;;;;18.50;16.40;;;;;;;20.03;93.11;99822.47;106209;1254;97972;-83
2023/07/01 02:06:46;;;;;;;18.00;16.30;;;;;;;20.01;93.22;99823.55;106459;1254;98578;-83
2023/07/01 02:09:32;;;;;;;18.10;16.30;;;;;;;20.00;93.29;99819.14;106389;1254;102597;-83
2023/07/01 02:12:18;;;;;;;18.20;16.40;;;;;;;20.00;93.57;99821.20;106379;1254;100170;-83
2023/07/01 02:15:04;;;;;;;18.60;16.70;;;;;;;19.98;93.86;99818.16;106285;1254;97911;-83
2023/07/01 02:17:52;;;;;;;20.30;18.20;;;;;;;19.97;93.89;99817.23;106457;1254;98299;-83
2023/07/01 02:20:38;;;;;;;18.80;16.90;;;;;;;19.94;94.10;99815.31;106363;1260;98053;-84
2023/07/01 02:23:23;;;;;;;21.00;18.50;;;;;;;19.91;94.41;99815.64;106335;1254;101917;-83
2023/07/01 02:26:10;;;;;;;20.00;17.80;;;;;;;19.87;94.55;99815.61;106326;1254;99263;-84
2023/07/01 02:28:55;;;;;;;24.10;18.40;;;;;;;19.86;94.95;99816.65;106387;1254;97959;-83
2023/07/01 02:31:41;;;;;;;19.90;17.90;;;;;;;19.86;95.09;99813.98;106329;1254;98088;-83
2023/07/01 02:34:27;;;;;;;24.30;19.20;;;;;;;19.86;94.94;99812.30;106593;1254;97945;-83
2023/07/01 02:37:13;;;;;;;22.20;18.00;;;;;;;19.86;95.33;99809.31;106221;1259;101415;-84
2023/07/01 02:39:59;;;;;;;20.60;18.40;;;;;;;19.87;95.50;99809.48;106414;1254;99189;-83
2023/07/01 02:42:45;;;;;;;19.90;17.50;;;;;;;19.89;95.62;99802.96;106411;1259;97855;-83
2023/07/01 02:45:31;;;;;;;20.60;18.50;;;;;;;19.89;95.55;99797.45;106338;1254;97974;-84
2023/07/01 02:48:17;;;;;;;20.30;18.30;;;;;;;19.85;95.52;99797.95;106558;1254;98463;-84
2023/07/01 02:51:02;;;;;;;25.00;19.30;;;;;;;19.82;95.44;99795.21;106525;1257;101367;-84
2023/07/01 02:53:48;;;;;;;21.30;19.00;;;;;;;19.82;95.48;99788.90;106314;1254;100344;-84
2023/07/01 02:56:34;;;;;;;21.50;18.80;;;;;;;19.81;95.59;99785.10;106617;1258;98033;-85
2023/07/01 02:59:19;;;;;;;20.40;18.30;;;;;;;19.82;95.89;99780.38;106237;1256;98001;-84
2023/07/01 03:02:06;;;;;;;20.50;18.40;;;;;;;19.84;95.61;99777.52;106243;1254;98471;-83
2023/07/01 03:04:52;;;;;;;23.70;19.40;;;;;;;19.85;95.58;99778.87;106298;1260;103139;-84
2023/07/01 03:07:38;;;;;;;20.90;18.70;;;;;;;19.85;95.69;99782.13;106278;1254;100339;-85
2023/07/01 03:10:23;;;;;;;20.20;18.10;;;;;;;19.83;95.68;99789.14;106639;1254;97883;-83
2023/07/01 03:13:09;;;;;;;20.10;18.00;;;;;;;19.84;95.92;99787.61;106222;1254;98034;-83
2023/07/01 03:15:56;;;;;;;22.40;18.80;;;;;;;19.84;95.88;99786.91;106368;1254;97986;-84
2023/07/01 03:18:42;;;;;;;20.40;18.40;;;;;;;19.83;96.00;99787.77;106401;1257;101425;-85
2023/07/01 03:21:27;;;;;;;21.50;19.40;;;;;;;19.81;96.05;99791.45;106381;1259;99084;-84
2023/07/01 03:24:13;;;;;;;25.10;19.70;;;;;;;19.75;96.04;99793.77;106327;1254;98449;-84
2023/07/01 03:27:03;;;;;;;22.70;20.40;;;;;;;19.70;96.33;99795.71;106336;1254;97979;-84
2023/07/01 03:29:49;;;;;;;22.30;18.40;;;;;;;19.65;96.68;99793.04;106276;1254;98075;-84
2023/07/01 03:32:34;;;;;;;25.10;19.10;;;;;;;19.58;96.71;99793.77;106344;1254;102608;-84
2023/07/01 03:35:20;;;;;;;21.10;17.20;;;;;;;19.51;97.16;99795.41;106322;1254;100484;-84
2023/07/01 03:38:06;;;;;;;19.00;17.00;;;;;;;19.47;97.23;99792.71;106379;1257;98999;-84
2023/07/01 03:40:52;;;;;;;19.60;17.30;;;;;;;19.44;97.39;99791.95;106436;1254;98021;-83
2023/07/01 03:43:37;;;;;;;21.50;15.40;;;;;;;19.39;97.48;99793.17;106313;1254;98511;-83
2023/07/01 03:46:23;;;;;;;20.70;16.60;;;;;;;19.35;97.92;99795.48;106284;1254;102061;-84
2023/07/01 03:49:09;;;;;;;18.00;15.20;;;;;;;19.33;97.97;99798.20;106609;1254;99074;-84
2023/07/01 03:51:54;;;;;;;19.80;15.20;;;;;;;19.31;97.77;99797.87;106336;1254;99072;-85
2023/07/01 03:54:40;;;;;;;18.20;15.90;;;;;;;19.30;97.91;99798.40;106301;1254;98043;-84
2023/07/01 03:57:26;;;;;;;19.40;14.70;;;;;;;19.31;97.95;99794.67;106270;1260;97760;-85
2023/07/01 04:00:19;;;;;;;21.60;15.40;;;;;;;19.37;98.07;99793.30;106298;1254;101354;-85
2023/07/01 04:03:05;;;;;;;18.60;15.10;;;;;;;19.44;97.96;99795.27;106587;1257;108755;-84
2023/07/01 04:05:52;;;;;;;19.30;16.20;;;;;;;19.47;97.90;99798.98;106382;1254;97792;-84
2023/07/01 04:08:38;;;;;;;18.20;16.20;;;;;;;19.51;97.89;99799.11;106571;1254;97784;-84
2023/07/01 04:11:23;;;;;;;19.60;16.50;;;;;;;19.55;97.93;99792.00;106556;1253;97865;-83
2023/07/01 04:14:10;;;;;;;18.10;15.60;;;;;;;19.58;98.03;99793.21;106504;1253;101313;-83
2023/07/01 04:16:55;;;;;;;17.70;15.40;;;;;;;19.60;97.70;99793.55;106512;1257;99751;-84
2023/07/01 04:19:41;;;;;;;19.90;15.80;;;;;;;19.59;97.41;99796.36;106478;1254;97963;-85
2023/07/01 04:22:27;;;;;;;19.30;15.70;;;;;;;19.56;97.25;99796.14;106331;1254;98025;-83
2023/07/01 04:25:13;;;;;;;19.70;15.90;;;;;;;19.57;97.23;99796.95;106306;1259;98487;-82
2023/07/01 04:28:01;;;;;;;19.60;15.10;;;;;;;19.55;97.30;99797.16;106400;1254;111313;-83
2023/07/01 04:30:47;;;;;;;18.90;14.80;;;;;;;19.56;97.27;99800.05;106594;1254;99066;-84
2023/07/01 04:33:33;;;;;;;18.60;14.60;;;;;;;19.59;97.55;99795.48;106341;1254;98002;-83
2023/07/01 04:36:19;;;;;;;19.20;15.00;;;;;;;19.59;97.27;99793.06;106312;1254;97965;-84
2023/07/01 04:39:05;;;;;;;16.80;13.90;;;;;;;19.60;97.35;99795.17;106304;1254;97966;-84
2023/07/01 04:41:51;;;;;;;20.50;15.20;;;;;;;19.63;97.32;99796.50;106421;1259;102616;-84
2023/07/01 04:44:37;;;;;;;19.80;16.10;;;;;;;19.67;97.53;99798.20;106552;1254;99358;-84
2023/07/01 04:47:23;;;;;;;17.80;14.00;;;;;;;19.68;97.47;99798.70;106523;1254;97890;-83
2023/07/01 04:50:09;;;;;;;19.20;14.70;;;;;;;19.68;97.56;99804.95;106517;1254;97888;-84
2023/07/01 04:52:55;;;;;;;19.90;15.10;;;;;;;19.65;97.45;99803.79;106450;1257;98044;-83
2023/07/01 04:55:41;;;;;;;18.70;15.20;;;;;;;19.62;97.63;99798.51;106658;1257;101377;-84
2023/07/01 04:58:26;;;;;;;18.60;14.20;;;;;;;19.60;97.35;99798.49;106532;1257;99152;-84
2023/07/01 05:01:12;;;;;;;17.80;15.10;;;;;;;19.60;97.53;99796.58;106495;1254;97881;-83
2023/07/01 05:03:58;;;;;;;18.30;14.30;;;;;;;19.61;97.67;99794.15;106470;1254;97969;-84
2023/07/01 05:06:44;;;;;;;20.60;15.90;;;;;;;19.65;97.73;99793.08;106462;1254;97954;-84
2023/07/01 05:09:30;;;;;;;18.40;14.30;;;;;;;19.66;97.90;99796.08;106479;1254;101385;-84
2023/07/01 05:12:15;;;;;;;22.70;15.80;;;;;;;19.70;97.96;99798.09;106558;1254;100021;-85
2023/07/01 05:15:00;;;;;;;20.10;14.80;;;;;;;19.73;98.02;99800.50;106579;1254;99054;-84
2023/07/01 05:17:46;;;;;;;18.40;14.20;;;;;;;19.76;98.17;99801.16;106389;1261;98053;-84
2023/07/01 05:20:32;;;;;;;20.80;15.10;;;;;;;19.76;97.87;99799.98;106484;1254;98395;-84
2023/07/01 05:23:17;;;;;;;17.10;14.40;;;;;;;19.76;97.62;99802.52;106599;1254;101890;-84
2023/07/01 05:26:03;;;;;;;20.50;14.70;;;;;;;19.79;97.94;99804.66;106419;1254;99432;-85
2023/07/01 05:28:49;;;;;;;20.10;13.90;;;;;;;19.82;97.90;99804.51;106562;1253;97921;-84
2023/07/01 05:31:35;;;;;;;21.60;13.90;;;;;;;19.84;98.02;99805.84;106399;1254;99649;-87
2023/07/01 05:34:23;;;;;;;17.50;13.60;;;;;;;19.84;97.62;99805.61;106492;1254;98393;-84
2023/07/01 05:37:09;;;;;;;18.80;14.20;;;;;;;19.85;97.69;99803.17;106577;1254;101323;-84
2023/07/01 05:40:00;;;;;;;20.10;12.70;;;;;;;19.82;97.33;99808.20;106494;1254;100084;-86
2023/07/01 05:42:46;;;;;;;21.90;14.10;;;;;;;19.77;97.26;99811.28;106439;1254;99231;-84
2023/07/01 05:45:39;;;;;;;19.50;14.40;;;;;;;19.72;97.40;99808.11;106501;1254;99180;-83
2023/07/01 05:48:25;;;;;;;19.60;14.50;;;;;;;19.71;97.36;99812.34;106764;1258;98014;-79
2023/07/01 05:51:17;;;;;;;20.90;13.90;;;;;;;19.69;97.54;99816.10;105858;1257;102251;-84
2023/07/01 05:54:03;;;;;;;24.50;15.30;;;;;;;19.70;97.90;99818.05;106366;1260;99103;-82
2023/07/01 05:56:48;;;;;;;22.60;15.20;;;;;;;19.74;98.32;99819.70;106348;1254;98998;-82
2023/07/01 05:59:34;;;;;;;18.60;14.20;;;;;;;19.78;98.57;99819.39;106278;1259;98151;-84
2023/07/01 06:02:19;;;;;;;18.80;14.20;;;;;;;19.80;98.10;99818.74;106381;1259;97903;-85
2023/07/01 06:05:05;;;;;;;23.20;14.80;;;;;;;19.77;97.73;99821.19;106576;1253;102741;-85
2023/07/01 06:07:51;;;;;;;17.90;13.60;;;;;;;19.77;97.91;99818.89;106208;1254;100351;-83
2023/07/01 06:10:37;;;;;;;19.70;13.70;;;;;;;19.75;98.06;99819.70;106573;1257;107644;-84
2023/07/01 06:13:22;;;;;;;15.60;11.10;;;;;;;19.72;98.03;99823.05;106642;1259;97960;-84
2023/07/01 06:16:07;;;;;;;14.10;9.30;;;;;;;19.68;97.35;99825.48;106175;1258;97829;-84
2023/07/01 06:18:53;;;;;;;14.20;9.20;;;;;;;19.58;96.24;99826.90;106333;1253;102561;-84
2023/07/01 06:21:38;;;;;;;9.40;8.10;;;;;;;19.51;96.14;99825.17;106201;1254;99085;-85
2023/07/01 06:24:24;;;;;;;12.00;8.40;;;;;;;19.48;96.44;99829.93;106496;1254;98425;-85
2023/07/01 06:27:10;;;;;;;11.40;8.60;;;;;;;19.48;96.78;99828.52;106307;1254;97958;-86
2023/07/01 06:29:56;;;;;;;11.20;7.30;;;;;;;19.48;96.82;99831.25;106526;1254;97973;-85
2023/07/01 06:32:42;;;;;;;17.00;8.20;;;;;;;19.46;96.40;99833.52;106411;1259;101434;-83
2023/07/01 06:35:28;;;;;;;16.10;7.90;;;;;;;19.49;97.07;99835.02;106612;1256;99306;-83
2023/07/01 06:38:13;;;;;;;12.30;7.60;;;;;;;19.51;96.85;99839.03;106465;1254;98561;-82
2023/07/01 06:41:00;;;;;;;11.30;7.70;;;;;;;19.56;96.78;99837.32;106251;1254;97943;-85
2023/07/01 06:43:46;;;;;;;9.30;7.20;;;;;;;19.64;96.76;99837.75;106859;1254;98495;-83
2023/07/01 06:46:33;;;;;;;11.80;8.30;;;;;;;19.70;96.62;99841.96;106783;1254;101738;-83
2023/07/01 06:49:19;;;;;;;11.60;7.40;;;;;;;19.75;96.35;99843.73;106591;1254;99113;-85
2023/07/01 06:52:05;;;;;;;12.00;8.30;;;;;;;19.77;95.93;99841.67;106328;1254;97889;-83
2023/07/01 06:54:50;;;;;;;16.90;10.30;;;;;;;19.80;96.31;99840.92;106404;1256;97945;-82
2023/07/01 06:57:36;;;;;;;14.70;10.30;;;;;;;19.80;95.47;99838.10;106131;1254;97888;-83
2023/07/01 07:00:22;;;;;;;19.70;10.40;;;;;;;19.75;95.51;99841.77;106328;1253;101337;-85
2023/07/01 07:03:07;;;;;;;15.50;10.10;;;;;;;19.73;95.80;99844.59;106455;1254;100266;-83
2023/07/01 07:05:54;;;;;;;14.20;10.10;;;;;;;19.73;96.31;99844.80;106546;1254;97877;-83
2023/07/01 07:08:40;;;;;;;18.40;12.60;;;;;;;19.78;96.77;99845.96;106285;1260;97941;-82
2023/07/01 07:11:26;;;;;;;21.00;13.30;;;;;;;19.79;96.29;99849.66;106423;1259;98148;-82
2023/07/01 07:14:11;;;;;;;20.00;13.00;;;;;;;19.76;95.66;99854.75;106586;1254;102111;-82
2023/07/01 07:16:57;;;;;;;27.00;13.40;;;;;;;19.73;95.70;99853.49;106314;1254;99942;-82
2023/07/01 07:19:42;;;;;;;19.60;12.60;;;;;;;19.73;96.04;99857.30;106248;1262;99416;-82
2023/07/01 07:22:28;;;;;;;22.70;13.40;;;;;;;19.74;96.31;99859.10;106471;1256;98043;-81
2023/07/01 07:25:17;;;;;;;16.20;10.90;;;;;;;19.79;96.63;99859.62;106502;1259;98481;-81
2023/07/01 07:28:03;;;;;;;17.00;10.90;;;;;;;19.83;96.17;99858.88;106586;1253;101340;-81
2023/07/01 07:30:49;;;;;;;19.30;10.90;;;;;;;19.85;95.70;99858.35;106550;1253;99144;-83
2023/07/01 07:33:35;;;;;;;15.70;10.40;;;;;;;19.87;96.00;99854.60;106514;1254;97991;-82
2023/07/01 07:36:21;;;;;;;12.10;9.50;;;;;;;19.90;96.19;99850.27;106307;1254;98946;-79
2023/07/01 07:39:06;;;;;;;13.00;9.50;;;;;;;19.95;96.19;99848.05;106056;1257;97749;-80
2023/07/01 07:41:52;;;;;;;18.60;11.30;;;;;;;19.96;95.91;99844.95;106259;1254;101338;-80
2023/07/01 07:44:37;;;;;;;16.80;11.10;;;;;;;19.99;95.58;99841.05;106583;1257;100573;-84
2023/07/01 07:47:23;;;;;;;17.80;10.70;;;;;;;20.04;95.65;99840.36;106533;1259;97946;-81
2023/07/01 07:50:09;;;;;;;20.80;11.20;;;;;;;20.08;95.58;99837.60;106647;1257;98043;-82
2023/07/01 07:52:54;;;;;;;20.40;11.20;;;;;;;20.09;95.00;99837.77;106377;1259;99560;-82
2023/07/01 07:55:42;;;;;;;19.50;11.20;;;;;;;20.11;94.90;99836.69;106454;1254;103175;-85
2023/07/01 07:58:27;;;;;;;17.40;11.70;;;;;;;20.16;94.95;99836.65;106245;1254;99077;-84
2023/07/01 08:01:13;;;;;;;17.80;11.10;;;;;;;20.19;94.59;99839.02;106060;1254;98026;-84
2023/07/01 08:03:58;;;;;;;21.40;11.50;;;;;;;20.15;94.46;99840.83;106167;1253;97968;-86
2023/07/01 08:06:44;;;;;;;18.60;11.00;;;;;;;20.08;93.96;99833.30;106302;1256;98428;-82
2023/07/01 08:09:31;;;;;;;20.80;12.40;;;;;;;20.01;93.34;99827.57;106660;1254;103562;-83
2023/07/01 08:12:16;;;;;;;20.00;12.40;;;;;;;19.99;93.70;99834.52;106281;1254;99981;-82
2023/07/01 08:15:02;;;;;;;26.40;13.20;;;;;;;20.02;93.62;99836.23;106659;1254;98913;-79
2023/07/01 08:17:47;;;;;;;20.90;13.90;;;;;;;20.06;93.78;99832.39;106556;1254;97852;-83
2023/07/01 08:20:33;;;;;;;24.20;14.20;;;;;;;20.12;93.68;99827.06;106324;1254;98640;-86
2023/07/01 08:23:19;;;;;;;25.30;15.60;;;;;;;20.20;93.40;99824.17;106478;1259;102644;-84
2023/07/01 08:26:05;;;;;;;24.20;14.30;;;;;;;20.28;93.40;99823.28;106741;1254;99960;-83
2023/07/01 08:28:50;;;;;;;22.20;13.20;;;;;;;20.40;93.16;99814.16;106646;1257;97880;-84
2023/07/01 08:31:36;;;;;;;21.70;13.80;;;;;;;20.52;93.08;99821.80;106471;1254;96836;-87
2023/07/01 08:34:22;;;;;;;21.70;13.10;;;;;;;20.57;92.25;99829.59;106339;1257;97832;-79
2023/07/01 08:37:07;;;;;;;20.20;12.60;;;;;;;20.59;91.83;99829.54;106025;1254;101323;-78
2023/07/01 08:39:53;;;;;;;22.10;14.40;;;;;;;20.59;91.56;99830.57;105841;1253;99664;-78
2023/07/01 08:42:50;;;;;;;18.20;12.60;;;;;;;20.63;91.45;99835.10;105873;1257;98014;-78
2023/07/01 08:45:38;;;;;;;15.20;11.20;;;;;;;20.63;90.98;99828.61;105775;1257;99310;-77
2023/07/01 08:48:26;;;;;;;17.90;11.90;;;;;;;20.61;90.67;99828.61;105855;1254;98453;-79
2023/07/01 08:51:12;;;;;;;17.40;11.30;;;;;;;20.62;90.83;99833.52;106550;1254;102714;-82
2023/07/01 08:54:02;;;;;;;16.90;11.10;;;;;;;20.63;90.77;99831.88;106953;1254;99737;-82
2023/07/01 08:56:48;;;;;;;11.40;9.20;;;;;;;20.66;90.62;99834.48;106784;1254;98668;-84
2023/07/01 08:59:34;;;;;;;15.00;9.80;;;;;;;20.66;89.75;99835.58;106647;1256;98906;-82
2023/07/01 09:02:22;;;;;;;13.50;10.90;;;;;;;20.65;89.22;99835.26;106692;1256;97961;-84
2023/07/01 09:05:08;;;;;;;20.20;12.40;;;;;;;20.71;89.67;99832.38;106366;1254;102679;-82
2023/07/01 09:07:54;;;;;;;18.60;11.10;;;;;;;20.80;89.88;99830.48;106427;1254;99160;-83
2023/07/01 09:10:39;;;;;;;16.50;12.00;;;;;;;20.89;89.25;99832.55;106621;1254;98494;-83
2023/07/01 09:13:26;;;;;;;15.70;11.90;;;;;;;20.95;88.69;99833.24;106326;1254;97973;-83
2023/07/01 09:16:29;;;;;;;18.60;12.10;;;;;;;20.99;88.55;99833.14;106007;1258;99804;-77
2023/07/01 09:19:16;;;;;;;13.20;10.40;;;;;;;21.04;88.74;99833.86;105805;1258;101638;-76
2023/07/01 09:22:09;;;;;;;15.00;10.60;;;;;;;21.02;88.01;99835.11;105571;1254;99768;-77
2023/07/01 09:24:55;;;;;;;13.40;9.10;;;;;;;21.01;88.38;99833.03;105683;1254;98070;-78
2023/07/01 09:27:49;;;;;;;9.40;8.50;;;;;;;21.01;88.07;99832.65;106517;1253;99256;-75
2023/07/01 09:30:36;;;;;;;10.20;7.80;;;;;;;21.05;87.89;99833.77;105457;1259;97986;-76
2023/07/01 09:33:22;;;;;;;14.20;9.60;;;;;;;21.06;87.42;99830.77;105614;1254;102599;-76
2023/07/01 09:36:09;;;;;;;13.90;9.90;;;;;;;21.06;87.55;99830.39;105477;1254;99032;-77
2023/07/01 09:38:55;;;;;;;11.80;9.20;;;;;;;21.05;87.14;99827.55;105479;1254;106543;-76
2023/07/01 09:41:41;;;;;;;15.60;10.60;;;;;;;21.05;86.85;99823.52;105553;1254;97936;-76
2023/07/01 09:44:27;;;;;;;15.60;10.50;;;;;;;21.10;87.39;99819.27;105648;1254;99753;-77
2023/07/01 09:47:25;;;;;;;14.60;11.40;;;;;;;21.22;87.42;99819.43;105598;1254;101352;-76
2023/07/01 09:50:29;;;;;;;13.40;10.90;;;;;;;21.35;87.35;99821.14;105558;1259;99064;-76
2023/07/01 09:53:26;;;;;;;14.80;10.30;;;;;;;21.49;87.15;99825.25;105688;1259;98990;-77
2023/07/01 09:56:17;;;;;;;11.70;10.00;;;;;;;21.64;87.03;99824.88;105637;1257;97971;-77
2023/07/01 09:59:04;;;;;;;11.60;9.60;;;;;;;21.74;85.77;99822.71;105407;1254;98036;-76
2023/07/01 10:01:58;;;;;;;11.60;9.40;;;;;;;21.78;84.81;99823.95;105584;1254;101475;-77
2023/07/01 10:04:44;;;;;;;11.40;9.30;;;;;;;21.78;83.88;99824.78;105611;1257;99703;-77
2023/07/01 10:07:30;;;;;;;12.10;9.60;;;;;;;21.76;83.30;99821.84;105492;1257;97871;-76
2023/07/01 10:10:18;;;;;;;13.80;9.70;;;;;;;21.78;83.50;99815.92;106893;1254;97963;-76
2023/07/01 10:13:06;;;;;;;12.50;8.90;;;;;;;21.85;83.90;99814.52;105555;1254;97982;-77
2023/07/01 10:15:52;;;;;;;13.20;8.80;;;;;;;21.98;83.74;99808.02;106429;1254;102931;-77
2023/07/01 10:18:38;;;;;;;9.70;8.80;;;;;;;22.12;84.17;99797.87;105557;1254;99247;-77
2023/07/01 10:21:23;;;;;;;11.60;8.40;;;;;;;22.27;84.27;99794.61;105537;1258;98090;-77
2023/07/01 10:24:09;;;;;;;11.70;8.00;;;;;;;22.40;83.60;99787.59;105581;1258;98722;-77
2023/07/01 10:26:54;;;;;;;8.90;6.50;;;;;;;22.52;82.82;99782.64;105596;1259;98402;-77
2023/07/01 10:29:40;;;;;;;8.90;6.40;;;;;;;22.64;82.11;99770.41;105609;1258;110969;-77
2023/07/01 10:32:26;;;;;;;11.60;6.70;;;;;;;22.75;81.62;99769.44;105720;1257;99662;-77
2023/07/01 10:35:14;;;;;;;10.80;6.60;;;;;;;22.88;81.18;99761.29;105716;1259;98603;-77
2023/07/01 10:38:21;;;;;;;7.10;5.80;;;;;;;22.99;80.19;99749.38;105634;1257;97954;-77
2023/07/01 10:41:07;;;;;;;7.40;6.10;;;;;;;23.09;79.34;99740.39;105571;1254;99563;-77
2023/07/01 10:44:22;;;;;;;10.30;5.90;;;;;;;23.18;79.65;99731.71;105609;1254;101308;-77
2023/07/01 10:47:15;;;;;;;8.00;5.90;;;;;;;23.22;78.72;99727.52;105615;1258;99094;-77
2023/07/01 10:50:02;;;;;;;6.20;5.60;;;;;;;23.24;77.08;99726.45;105559;1254;98969;-77
2023/07/01 10:52:58;;;;;;;7.90;5.90;;;;;;;23.23;76.04;99726.79;105620;1254;97986;-77
2023/07/01 10:55:49;;;;;;;7.20;4.90;;;;;;;23.25;76.07;99728.40;105672;1259;97957;-78
2023/07/01 10:58:35;;;;;;;9.00;5.90;;;;;;;23.28;74.76;99727.07;105651;1259;110153;-77
2023/07/01 11:01:41;;;;;;;9.40;6.10;;;;;;;23.32;75.05;99722.21;105748;1255;99120;-77
2023/07/01 11:04:51;;;;;;;7.60;5.20;;;;;;;23.44;75.64;99724.34;105708;1254;98130;-77
2023/07/01 11:07:41;;;;;;;7.50;5.70;;;;;;;23.55;74.64;99725.01;105619;1258;98136;-77
2023/07/01 11:10:28;;;;;;;8.00;5.00;;;;;;;23.56;73.25;99727.45;106184;1254;97959;-77
2023/07/01 11:13:17;;;;;;;8.50;5.30;;;;;;;23.62;73.39;99728.04;105627;1257;101320;-77
2023/07/01 11:16:09;;;;;;;8.00;5.20;;;;;;;23.75;73.15;99730.88;105758;1259;99323;-77
2023/07/01 11:18:57;;;;;;;7.30;5.60;;;;;;;23.87;72.29;99727.48;105962;1253;99035;-76
2023/07/01 11:21:43;;;;;;;8.90;5.30;;;;;;;23.96;71.52;99723.14;105630;1254;98050;-77
2023/07/01 11:24:32;;;;;;;9.50;5.40;;;;;;;23.98;70.83;99719.99;105693;1258;99752;-77
2023/07/01 11:27:17;;;;;;;7.80;5.60;;;;;;;24.01;70.19;99720.49;105652;1259;101289;-77
2023/07/01 11:30:04;;;;;;;9.80;5.60;;;;;;;24.03;70.06;99722.61;106030;1254;100092;-78
2023/07/01 11:32:49;;;;;;;8.30;5.40;;;;;;;24.10;70.01;99718.42;106680;1254;99436;-79
2023/07/01 11:35:51;;;;;;;7.50;5.50;;;;;;;24.16;69.83;99714.67;106319;1254;98014;-79
2023/07/01 11:38:37;;;;;;;7.40;5.50;;;;;;;24.27;70.33;99715.73;106785;1257;99368;-79
2023/07/01 11:41:23;;;;;;;7.40;5.40;;;;;;;24.39;69.55;99714.78;106517;1254;101362;-78
2023/07/01 11:44:12;;;;;;;6.60;5.90;;;;;;;24.46;67.99;99717.79;106200;1254;99976;-79
2023/07/01 11:46:58;;;;;;;11.20;7.20;;;;;;;24.42;67.68;99710.96;106378;1254;97901;-79
2023/07/01 11:49:43;;;;;;;7.70;6.20;;;;;;;24.41;68.36;99714.76;106479;1260;97925;-79
2023/07/01 11:52:29;;;;;;;7.30;5.90;;;;;;;24.32;67.52;99712.82;106637;1254;98562;-79
2023/07/01 11:55:33;;;;;;;8.80;5.70;;;;;;;24.25;67.75;99706.02;106444;1259;101345;-78
2023/07/01 11:58:31;;;;;;;9.60;5.40;;;;;;;24.28;66.85;99702.85;106455;1259;99077;-79
2023/07/01 12:01:24;;;;;;;7.40;5.70;;;;;;;24.34;66.90;99705.84;106103;1259;98414;-82
2023/07/01 12:04:16;;;;;;;10.60;6.40;;;;;;;24.37;66.70;99701.09;106265;1254;98274;-81
2023/07/01 12:07:10;;;;;;;8.50;5.80;;;;;;;24.39;66.11;99698.13;106536;1254;98395;-79
2023/07/01 12:10:17;;;;;;;7.70;5.50;;;;;;;24.47;66.77;99693.96;106484;1254;102692;-82
2023/07/01 12:13:02;;;;;;;9.10;5.70;;;;;;;24.50;66.16;99694.84;106175;1259;100313;-82
2023/07/01 12:15:51;;;;;;;7.60;5.60;;;;;;;24.52;65.30;99693.11;106396;1254;99423;-82
2023/07/01 12:18:38;;;;;;;7.40;5.80;;;;;;;24.50;64.65;99691.11;106219;1254;98060;-82
2023/07/01 12:21:27;;;;;;;6.30;5.10;;;;;;;24.50;64.57;99684.86;106449;1254;97765;-81
2023/07/01 12:24:18;;;;;;;9.40;6.90;;;;;;;24.58;65.13;99686.17;106389;1254;103167;-81
2023/07/01 12:27:04;;;;;;;11.00;7.60;;;;;;;24.65;65.56;99685.81;106901;1254;100430;-84
2023/07/01 12:29:50;;;;;;;7.30;5.40;;;;;;;24.69;65.44;99680.27;106450;1254;97930;-83
2023/07/01 12:32:36;;;;;;;11.00;5.80;;;;;;;24.76;64.65;99680.70;106265;1257;99317;-81
2023/07/01 12:35:21;;;;;;;8.00;6.60;;;;;;;24.85;64.47;99679.77;106333;1254;97957;-82
2023/07/01 12:38:12;;;;;;;9.60;6.40;;;;;;;24.98;64.02;99673.01;106746;1254;102169;-82
2023/07/01 12:40:57;;;;;;;7.50;5.60;;;;;;;25.08;62.59;99668.75;106808;1259;99047;-82
2023/07/01 12:43:46;;;;;;;7.40;5.30;;;;;;;25.11;62.32;99667.55;107086;1254;98306;-82